Terminal Aerodrome Forecast
Issued by NWS Louisville, KY

Home | Current Version | Previous Version | Text Only | Print | Product List | Glossary On
Versions: 1 2 3 4 5 6 7 8 9 10 11 12 13 14 15 16
000
FTUS43 KLMK 232343
TAFLEX
TAF
KLEX 232343Z 2400/2424 VRB05KT P6SM BKN050
     FM241100 VRB03KT 4SM BR BKN090
     FM241700 18006KT 6SM -SHRA BR BKN030
     FM242100 22006KT 4SM -SHRA BR BKN019=

USA.gov is the U.S. government's official web portal to all federal, state and local government web resources and services.